< Typhoon 202121 2021 Season
Typhoon 202122 (RAI)
General InformationDetailed Track InformationTrack Information on Google MapsForecast History on Google MapsAccess Analytics MapList of All Images || NewsDisaster Info.WeblogTrackbackTyphoon FrontTwiphoonTyphoon Now!Typhoon ImaginationJMA Disaster Info. XMLResourceGoogle EarthGE AnimationAtom FeedGeoJSON
Detalied Best Track Wind (Time Zone = UTC)
Year Month Day Hour Lat. Long. Wind (kt) Gust (kt) Direc. of Major Storm Axis Radius of Major Storm Axis (nm) Radius of Minor Storm Axis (nm) Direc. of Major Gale Axis Radius of Major Gale Axis (nm) Radius of Minor Gale Axis (nm) Image
2021 12 12 00 4.9 145.0 30 45 - - - - - - Image
2021 12 12 03 5.6 145.0 30 45 - - - - - - Image
2021 12 12 06 5.7 144.8 30 45 - - - - - - Image
2021 12 12 09 5.8 144.7 30 45 - - - - - - Image
2021 12 12 12 5.8 144.7 30 45 - - - - - - Image
2021 12 12 15 5.8 144.4 30 45 - - - - - - Image
2021 12 12 18 5.8 143.4 30 45 - - - - - - Image
2021 12 12 21 5.8 143.2 30 45 - - - - - - Image
2021 12 13 00 5.8 142.6 30 45 - - - - - - Image
2021 12 13 03 5.7 142.0 30 45 - - - - - - Image
2021 12 13 06 6.0 140.8 35 50 - - - NW 240 150 Image
2021 12 13 09 5.9 140.2 35 50 - - - NW 240 150 Image
2021 12 13 12 6.4 139.7 35 50 - - - NW 240 150 Image
2021 12 13 15 6.6 139.4 35 50 - - - NW 240 150 Image
2021 12 13 18 6.9 138.6 45 65 - - - N 200 120 Image
2021 12 13 21 7.0 138.1 45 65 - - - N 200 120 Image
2021 12 14 00 7.4 136.9 50 70 - - - N 200 120 Image
2021 12 14 03 7.4 136.2 50 70 - - - NE 180 90 Image
2021 12 14 06 7.4 135.6 55 80 symmetric 30 30 NE 180 90 Image
2021 12 14 09 7.8 135.2 55 80 symmetric 30 30 NE 180 90 Image
2021 12 14 12 8.4 134.7 55 80 symmetric 30 30 NE 180 90 Image
2021 12 14 15 9.1 134.2 55 80 symmetric 30 30 NE 180 90 Image
2021 12 14 18 9.1 133.4 60 85 symmetric 40 40 N 180 90 Image
2021 12 14 21 9.1 132.8 60 85 symmetric 40 40 N 180 90 Image
2021 12 15 00 8.7 132.3 65 95 symmetric 45 45 N 180 90 Image
2021 12 15 03 8.7 131.7 65 95 symmetric 45 45 NE 240 150 Image
2021 12 15 06 8.9 131.2 65 95 symmetric 45 45 NE 240 150 Image
2021 12 15 09 8.9 130.6 65 95 symmetric 45 45 NE 240 150 Image
2021 12 15 12 9.0 130.2 75 105 symmetric 60 60 NE 240 150 Image
2021 12 15 15 9.2 129.6 75 105 symmetric 60 60 NE 240 150 Image
2021 12 15 18 9.3 129.1 80 115 symmetric 75 75 NE 240 150 Image
2021 12 15 21 9.6 128.3 85 120 symmetric 80 80 NE 240 150 Image
2021 12 16 00 9.7 127.7 100 140 symmetric 110 110 NE 240 150 Image
2021 12 16 03 9.8 126.9 105 150 symmetric 120 120 NE 240 150 Image
2021 12 16 06 9.9 126.0 105 150 symmetric 120 120 NE 240 150 Image
2021 12 16 09 10.0 125.2 100 140 symmetric 90 90 NE 240 150 Image
2021 12 16 12 10.1 124.2 95 135 symmetric 90 90 NE 240 150 Image
2021 12 16 15 10.0 123.3 95 135 symmetric 90 90 NE 240 150 Image
2021 12 16 18 10.2 122.5 85 120 symmetric 80 80 NE 240 150 Image
2021 12 16 21 10.0 121.9 85 120 symmetric 80 80 NE 240 150 Image
2021 12 17 00 10.0 121.1 80 115 symmetric 80 80 NE 240 150 Image
2021 12 17 03 9.8 120.7 80 115 symmetric 80 80 NE 240 150 Image
2021 12 17 06 10.1 119.9 80 115 symmetric 80 80 N 240 150 Image
2021 12 17 09 10.3 119.2 80 115 symmetric 80 80 N 240 150 Image
2021 12 17 12 10.4 118.7 80 115 symmetric 80 80 N 240 150 Image
2021 12 17 18 11.0 117.3 80 115 symmetric 80 80 N 300 150 Image
2021 12 17 21 10.9 116.6 80 115 symmetric 80 80 N 300 150 Image
2021 12 18 00 11.0 115.9 85 120 symmetric 80 80 N 300 150 Image
2021 12 18 03 11.1 115.3 85 120 symmetric 80 80 N 300 150 Image
2021 12 18 06 11.3 114.7 85 120 symmetric 80 80 NW 300 180 Image
2021 12 18 09 11.6 114.0 85 120 symmetric 80 80 NW 300 180 Image
2021 12 18 12 11.9 113.4 100 140 SE 100 80 NW 300 210 Image
2021 12 18 15 12.1 112.9 100 140 SE 100 80 NW 300 210 Image
2021 12 18 18 12.6 112.2 105 150 symmetric 100 100 N 270 210 Image
2021 12 18 21 12.9 111.7 105 150 symmetric 100 100 N 270 210 Image
2021 12 19 00 13.1 111.4 105 150 symmetric 100 100 N 270 180 Image
2021 12 19 03 13.6 110.9 105 150 symmetric 100 100 N 270 180 Image
2021 12 19 06 14.1 110.6 100 140 N 80 60 N 240 150 Image
2021 12 19 09 14.4 110.6 95 135 N 80 60 N 240 150 Image
2021 12 19 12 14.7 110.6 90 130 N 80 60 N 240 150 Image
2021 12 19 15 15.2 110.6 85 120 N 80 60 N 240 150 Image
2021 12 19 18 15.9 110.7 80 115 N 80 60 N 240 150 Image
2021 12 19 21 16.4 110.8 75 105 N 80 60 N 240 150 Image
2021 12 20 00 17.2 110.8 70 100 N 80 60 N 240 150 Image
2021 12 20 03 17.7 111.0 65 95 N 80 60 N 240 150 Image
2021 12 20 06 18.0 111.3 55 80 symmetric 30 30 N 240 150 Image
2021 12 20 09 18.7 111.5 40 60 - - - N 210 150 Image
2021 12 20 12 19.0 112.0 0 0 - - - - - - Image
Japan Meteorological Agency Best Track Data | Correction Date : 2021-12-20
< Typhoon 202121 2021 Season

Help